sensor_id;sensor_type;location;lat;lon;timestamp;pressure;altitude;pressure_sealevel;temperature;humidity
21185;BME280;18176;49.502;11.754;2023-03-24T00:00:07;96221.97;;;14.70;77.93
21185;BME280;18176;49.502;11.754;2023-03-24T00:04:13;96219.81;;;14.72;77.99
21185;BME280;18176;49.502;11.754;2023-03-24T00:08:14;96222.50;;;14.57;78.88
21185;BME280;18176;49.502;11.754;2023-03-24T00:12:15;96209.75;;;14.59;78.53
21185;BME280;18176;49.502;11.754;2023-03-24T00:16:16;96219.84;;;14.62;78.58
21185;BME280;18176;49.502;11.754;2023-03-24T00:20:22;96213.97;;;14.65;78.74
21185;BME280;18176;49.502;11.754;2023-03-24T00:24:23;96205.41;;;14.73;77.92
21185;BME280;18176;49.502;11.754;2023-03-24T00:28:24;96203.28;;;14.70;78.28
21185;BME280;18176;49.502;11.754;2023-03-24T00:32:25;96198.00;;;14.60;78.49
21185;BME280;18176;49.502;11.754;2023-03-24T00:36:29;96158.63;;;14.42;78.38
21185;BME280;18176;49.502;11.754;2023-03-24T00:40:30;96184.13;;;14.63;77.74
21185;BME280;18176;49.502;11.754;2023-03-24T00:44:31;96172.91;;;14.66;77.23
21185;BME280;18176;49.502;11.754;2023-03-24T00:48:34;96180.25;;;14.90;76.76
21185;BME280;18176;49.502;11.754;2023-03-24T00:52:38;96176.59;;;14.75;77.10
21185;BME280;18176;49.502;11.754;2023-03-24T00:56:43;96177.59;;;14.90;76.37
21185;BME280;18176;49.502;11.754;2023-03-24T01:00:48;96165.81;;;14.96;75.94
21185;BME280;18176;49.502;11.754;2023-03-24T01:04:52;96163.06;;;15.11;75.15
21185;BME280;18176;49.502;11.754;2023-03-24T01:08:56;96152.50;;;14.91;75.80
21185;BME280;18176;49.502;11.754;2023-03-24T01:13:00;96140.19;;;15.00;75.58
21185;BME280;18176;49.502;11.754;2023-03-24T01:17:01;96161.03;;;14.93;76.53
21185;BME280;18176;49.502;11.754;2023-03-24T01:21:04;96171.47;;;14.89;76.62
21185;BME280;18176;49.502;11.754;2023-03-24T01:25:12;96171.50;;;14.79;77.79
21185;BME280;18176;49.502;11.754;2023-03-24T01:29:13;96191.53;;;14.71;78.95
21185;BME280;18176;49.502;11.754;2023-03-24T01:33:15;96193.66;;;14.80;78.99
21185;BME280;18176;49.502;11.754;2023-03-24T01:37:15;96171.84;;;14.62;79.80
21185;BME280;18176;49.502;11.754;2023-03-24T01:41:19;96176.63;;;14.70;79.95
21185;BME280;18176;49.502;11.754;2023-03-24T01:45:53;96174.25;;;14.64;80.16
21185;BME280;18176;49.502;11.754;2023-03-24T01:50:00;96172.34;;;14.69;79.38
21185;BME280;18176;49.502;11.754;2023-03-24T01:54:06;96176.09;;;14.68;79.44
21185;BME280;18176;49.502;11.754;2023-03-24T01:58:10;96176.97;;;14.49;80.94
21185;BME280;18176;49.502;11.754;2023-03-24T02:02:34;96163.94;;;14.47;81.32
21185;BME280;18176;49.502;11.754;2023-03-24T02:06:39;96157.81;;;14.37;81.39
21185;BME280;18176;49.502;11.754;2023-03-24T02:10:43;96168.47;;;14.37;81.13
21185;BME280;18176;49.502;11.754;2023-03-24T02:14:47;96170.31;;;14.41;80.59
21185;BME280;18176;49.502;11.754;2023-03-24T02:19:03;96178.34;;;14.26;82.46
21185;BME280;18176;49.502;11.754;2023-03-24T02:23:39;96169.03;;;14.24;82.73
21185;BME280;18176;49.502;11.754;2023-03-24T02:28:12;96149.31;;;14.25;82.74
21185;BME280;18176;49.502;11.754;2023-03-24T02:38:04;96135.75;;;14.16;82.89
21185;BME280;18176;49.502;11.754;2023-03-24T02:42:24;96123.50;;;14.15;83.44
21185;BME280;18176;49.502;11.754;2023-03-24T02:46:36;96094.75;;;14.12;83.23
21185;BME280;18176;49.502;11.754;2023-03-24T02:50:46;96080.63;;;14.12;82.99
21185;BME280;18176;49.502;11.754;2023-03-24T02:54:56;96074.03;;;13.99;83.29
21185;BME280;18176;49.502;11.754;2023-03-24T02:59:06;96069.72;;;14.08;82.58
21185;BME280;18176;49.502;11.754;2023-03-24T03:03:16;96070.53;;;14.03;82.50
21185;BME280;18176;49.502;11.754;2023-03-24T03:07:28;96067.81;;;14.14;82.36
21185;BME280;18176;49.502;11.754;2023-03-24T03:11:30;96066.97;;;14.23;81.32
21185;BME280;18176;49.502;11.754;2023-03-24T03:15:37;96064.88;;;14.20;80.75
21185;BME280;18176;49.502;11.754;2023-03-24T03:19:43;96057.94;;;14.24;81.74
21185;BME280;18176;49.502;11.754;2023-03-24T03:23:50;96047.31;;;14.14;81.40
21185;BME280;18176;49.502;11.754;2023-03-24T03:27:56;96048.38;;;14.18;81.27
21185;BME280;18176;49.502;11.754;2023-03-24T03:32:03;96023.28;;;14.29;79.83
21185;BME280;18176;49.502;11.754;2023-03-24T03:36:13;96026.97;;;14.43;79.53
21185;BME280;18176;49.502;11.754;2023-03-24T03:40:20;96024.84;;;14.35;79.77
21185;BME280;18176;49.502;11.754;2023-03-24T03:44:30;96028.59;;;14.29;79.16
21185;BME280;18176;49.502;11.754;2023-03-24T03:48:33;96024.88;;;14.30;79.04
21185;BME280;18176;49.502;11.754;2023-03-24T03:52:38;96026.69;;;14.40;78.74
21185;BME280;18176;49.502;11.754;2023-03-24T03:56:41;96019.28;;;14.32;78.62
21185;BME280;18176;49.502;11.754;2023-03-24T04:00:48;96024.34;;;14.28;79.11
21185;BME280;18176;49.502;11.754;2023-03-24T04:05:27;96020.13;;;14.17;79.50
21185;BME280;18176;49.502;11.754;2023-03-24T04:09:57;96018.56;;;14.11;79.92
21185;BME280;18176;49.502;11.754;2023-03-24T04:14:18;96016.94;;;14.15;79.50
21185;BME280;18176;49.502;11.754;2023-03-24T04:19:04;95995.63;;;14.20;78.70
21185;BME280;18176;49.502;11.754;2023-03-24T04:23:25;96008.47;;;14.03;79.58
21185;BME280;18176;49.502;11.754;2023-03-24T04:27:36;96021.75;;;14.18;78.97
21185;BME280;18176;49.502;11.754;2023-03-24T04:31:45;96015.44;;;13.99;79.89
21185;BME280;18176;49.502;11.754;2023-03-24T04:35:57;96007.03;;;14.26;79.00
21185;BME280;18176;49.502;11.754;2023-03-24T04:40:21;96006.84;;;14.12;79.20
21185;BME280;18176;49.502;11.754;2023-03-24T04:44:25;96012.94;;;14.18;78.84
21185;BME280;18176;49.502;11.754;2023-03-24T04:48:45;96005.22;;;14.16;78.90
21185;BME280;18176;49.502;11.754;2023-03-24T04:52:59;95995.69;;;14.05;79.62
21185;BME280;18176;49.502;11.754;2023-03-24T04:57:03;96007.38;;;14.09;79.25
21185;BME280;18176;49.502;11.754;2023-03-24T05:01:15;95997.31;;;13.96;80.10
21185;BME280;18176;49.502;11.754;2023-03-24T05:05:37;95988.81;;;13.94;79.87
21185;BME280;18176;49.502;11.754;2023-03-24T05:09:41;95987.28;;;13.83;80.03
21185;BME280;18176;49.502;11.754;2023-03-24T05:13:45;96003.19;;;13.93;79.96
21185;BME280;18176;49.502;11.754;2023-03-24T05:17:46;95997.84;;;13.98;79.85
21185;BME280;18176;49.502;11.754;2023-03-24T05:21:49;95998.81;;;14.17;78.70
21185;BME280;18176;49.502;11.754;2023-03-24T05:25:50;95995.03;;;14.28;78.19
21185;BME280;18176;49.502;11.754;2023-03-24T05:29:56;96000.88;;;14.35;77.96
21185;BME280;18176;49.502;11.754;2023-03-24T05:33:59;96000.84;;;14.40;78.01
21185;BME280;18176;49.502;11.754;2023-03-24T05:38:02;96001.41;;;14.32;77.77
21185;BME280;18176;49.502;11.754;2023-03-24T05:42:04;95999.31;;;14.34;78.39
21185;BME280;18176;49.502;11.754;2023-03-24T05:46:07;95999.75;;;14.41;78.30
21185;BME280;18176;49.502;11.754;2023-03-24T05:50:09;96031.19;;;14.44;78.00
21185;BME280;18176;49.502;11.754;2023-03-24T05:54:10;96023.28;;;14.29;78.37
21185;BME280;18176;49.502;11.754;2023-03-24T05:58:12;96014.22;;;14.30;78.56
21185;BME280;18176;49.502;11.754;2023-03-24T06:02:20;96008.84;;;14.40;78.36
21185;BME280;18176;49.502;11.754;2023-03-24T06:06:26;95992.31;;;14.43;78.20
21185;BME280;18176;49.502;11.754;2023-03-24T06:10:28;95985.91;;;14.39;78.60
21185;BME280;18176;49.502;11.754;2023-03-24T06:14:30;95986.41;;;14.46;77.92
21185;BME280;18176;49.502;11.754;2023-03-24T06:18:39;96003.41;;;14.55;77.27
21185;BME280;18176;49.502;11.754;2023-03-24T06:22:49;95999.56;;;14.71;76.77
21185;BME280;18176;49.502;11.754;2023-03-24T06:27:01;96005.38;;;14.78;76.39
21185;BME280;18176;49.502;11.754;2023-03-24T06:31:06;96011.91;;;14.96;76.74
21185;BME280;18176;49.502;11.754;2023-03-24T06:35:18;96011.19;;;14.86;77.11
21185;BME280;18176;49.502;11.754;2023-03-24T06:39:28;96022.59;;;14.96;76.76
21185;BME280;18176;49.502;11.754;2023-03-24T06:43:31;96015.94;;;15.22;76.83
21185;BME280;18176;49.502;11.754;2023-03-24T06:47:31;96001.09;;;15.40;75.36
21185;BME280;18176;49.502;11.754;2023-03-24T06:51:36;95997.84;;;15.48;74.59
21185;BME280;18176;49.502;11.754;2023-03-24T06:55:37;95995.13;;;15.53;75.31
21185;BME280;18176;49.502;11.754;2023-03-24T06:59:39;95989.72;;;15.58;75.39
21185;BME280;18176;49.502;11.754;2023-03-24T07:03:41;96005.38;;;15.70;74.94
21185;BME280;18176;49.502;11.754;2023-03-24T07:07:48;96010.59;;;15.56;75.02
21185;BME280;18176;49.502;11.754;2023-03-24T07:12:12;96001.03;;;15.74;74.98
21185;BME280;18176;49.502;11.754;2023-03-24T07:16:12;96013.31;;;15.51;75.28
21185;BME280;18176;49.502;11.754;2023-03-24T07:20:22;95999.44;;;15.49;76.03
21185;BME280;18176;49.502;11.754;2023-03-24T07:24:46;96037.00;;;15.58;75.68
21185;BME280;18176;49.502;11.754;2023-03-24T07:29:07;96036.16;;;15.62;76.04
21185;BME280;18176;49.502;11.754;2023-03-24T07:33:31;96033.19;;;15.64;75.34
21185;BME280;18176;49.502;11.754;2023-03-24T07:37:32;96033.84;;;15.79;73.94
21185;BME280;18176;49.502;11.754;2023-03-24T07:41:35;96046.38;;;16.02;73.43
21185;BME280;18176;49.502;11.754;2023-03-24T07:45:44;96056.13;;;16.36;73.36
21185;BME280;18176;49.502;11.754;2023-03-24T07:49:49;96059.44;;;16.46;73.53
21185;BME280;18176;49.502;11.754;2023-03-24T07:53:50;96067.69;;;16.50;74.28
21185;BME280;18176;49.502;11.754;2023-03-24T07:58:04;96074.03;;;16.77;73.59
21185;BME280;18176;49.502;11.754;2023-03-24T08:02:16;96079.47;;;16.91;71.53
21185;BME280;18176;49.502;11.754;2023-03-24T08:06:55;96087.06;;;16.84;71.46
21185;BME280;18176;49.502;11.754;2023-03-24T08:10:58;96084.94;;;16.81;71.64
21185;BME280;18176;49.502;11.754;2023-03-24T08:15:05;96096.81;;;16.75;71.30
21185;BME280;18176;49.502;11.754;2023-03-24T08:19:06;96088.19;;;16.59;72.24
21185;BME280;18176;49.502;11.754;2023-03-24T08:23:07;96083.34;;;16.61;73.26
21185;BME280;18176;49.502;11.754;2023-03-24T08:27:07;96085.22;;;16.61;73.25
21185;BME280;18176;49.502;11.754;2023-03-24T08:31:11;96078.38;;;16.55;73.62
21185;BME280;18176;49.502;11.754;2023-03-24T08:35:15;96071.25;;;16.45;73.80
21185;BME280;18176;49.502;11.754;2023-03-24T08:39:16;96075.34;;;16.80;73.55
21185;BME280;18176;49.502;11.754;2023-03-24T08:43:17;96069.78;;;17.27;71.77
21185;BME280;18176;49.502;11.754;2023-03-24T08:47:22;96067.16;;;17.41;70.01
21185;BME280;18176;49.502;11.754;2023-03-24T08:51:23;96070.63;;;17.74;69.16
21185;BME280;18176;49.502;11.754;2023-03-24T08:55:24;96070.06;;;17.90;67.88
21185;BME280;18176;49.502;11.754;2023-03-24T08:59:27;96069.97;;;18.09;68.47
21185;BME280;18176;49.502;11.754;2023-03-24T09:03:31;96076.47;;;17.43;69.76
21185;BME280;18176;49.502;11.754;2023-03-24T09:07:35;96080.56;;;17.22;70.83
21185;BME280;18176;49.502;11.754;2023-03-24T09:11:36;96095.19;;;17.11;70.09
21185;BME280;18176;49.502;11.754;2023-03-24T09:15:40;96079.84;;;17.35;69.81
21185;BME280;18176;49.502;11.754;2023-03-24T09:19:48;96102.56;;;17.57;70.91
21185;BME280;18176;49.502;11.754;2023-03-24T09:23:48;96101.06;;;17.45;69.75
21185;BME280;18176;49.502;11.754;2023-03-24T09:27:50;96113.53;;;17.36;71.15
21185;BME280;18176;49.502;11.754;2023-03-24T09:31:56;96104.47;;;17.00;70.82
21185;BME280;18176;49.502;11.754;2023-03-24T09:36:03;96109.19;;;16.71;73.14
21185;BME280;18176;49.502;11.754;2023-03-24T09:40:06;96106.34;;;16.81;73.99
21185;BME280;18176;49.502;11.754;2023-03-24T09:44:20;96116.16;;;16.67;74.62
21185;BME280;18176;49.502;11.754;2023-03-24T09:48:32;96110.19;;;16.75;75.49
21185;BME280;18176;49.502;11.754;2023-03-24T09:52:42;96117.56;;;16.41;76.70
21185;BME280;18176;49.502;11.754;2023-03-24T09:56:45;96121.91;;;16.37;77.71
21185;BME280;18176;49.502;11.754;2023-03-24T10:00:48;96118.69;;;16.35;78.88
21185;BME280;18176;49.502;11.754;2023-03-24T10:04:54;96126.66;;;15.92;78.69
21185;BME280;18176;49.502;11.754;2023-03-24T10:09:16;96114.19;;;15.54;81.66
21185;BME280;18176;49.502;11.754;2023-03-24T10:13:30;96116.09;;;16.06;80.02
21185;BME280;18176;49.502;11.754;2023-03-24T10:17:42;96066.56;;;16.13;80.63
21185;BME280;18176;49.502;11.754;2023-03-24T10:21:56;96100.06;;;16.30;78.34
21185;BME280;18176;49.502;11.754;2023-03-24T10:26:12;96094.72;;;16.30;78.81
21185;BME280;18176;49.502;11.754;2023-03-24T10:30:20;96097.53;;;16.38;79.08
21185;BME280;18176;49.502;11.754;2023-03-24T10:34:30;96106.28;;;16.44;77.10
21185;BME280;18176;49.502;11.754;2023-03-24T10:38:31;96108.34;;;16.52;77.98
21185;BME280;18176;49.502;11.754;2023-03-24T10:42:37;96099.84;;;17.24;75.15
21185;BME280;18176;49.502;11.754;2023-03-24T10:46:46;96097.84;;;17.94;72.86
21185;BME280;18176;49.502;11.754;2023-03-24T10:50:47;96117.66;;;18.66;67.94
21185;BME280;18176;49.502;11.754;2023-03-24T10:54:54;96099.44;;;18.63;66.98
21185;BME280;18176;49.502;11.754;2023-03-24T10:59:02;96107.81;;;18.21;69.38
21185;BME280;18176;49.502;11.754;2023-03-24T11:03:10;96095.94;;;17.49;70.01
21185;BME280;18176;49.502;11.754;2023-03-24T11:07:21;96114.31;;;17.23;69.75
21185;BME280;18176;49.502;11.754;2023-03-24T11:11:30;96099.84;;;17.24;70.30
21185;BME280;18176;49.502;11.754;2023-03-24T11:15:55;96087.06;;;17.53;67.75
21185;BME280;18176;49.502;11.754;2023-03-24T11:19:57;96092.06;;;17.74;67.25
21185;BME280;18176;49.502;11.754;2023-03-24T11:24:00;96081.00;;;17.62;68.60
21185;BME280;18176;49.502;11.754;2023-03-24T11:28:06;96107.91;;;17.57;67.63
21185;BME280;18176;49.502;11.754;2023-03-24T11:32:19;96103.59;;;17.23;69.05
21185;BME280;18176;49.502;11.754;2023-03-24T11:36:46;96116.19;;;17.04;69.63
21185;BME280;18176;49.502;11.754;2023-03-24T11:40:56;96102.34;;;17.34;68.72
21185;BME280;18176;49.502;11.754;2023-03-24T11:44:59;96100.66;;;17.38;68.83
21185;BME280;18176;49.502;11.754;2023-03-24T11:49:04;96066.88;;;17.10;69.27
21185;BME280;18176;49.502;11.754;2023-03-24T11:53:13;96077.00;;;17.27;69.15
21185;BME280;18176;49.502;11.754;2023-03-24T11:57:31;96075.69;;;17.43;68.84
21185;BME280;18176;49.502;11.754;2023-03-24T12:01:49;96077.47;;;17.80;67.36
21185;BME280;18176;49.502;11.754;2023-03-24T12:06:05;96068.44;;;17.89;66.98
21185;BME280;18176;49.502;11.754;2023-03-24T12:10:23;96059.47;;;18.75;64.94
21185;BME280;18176;49.502;11.754;2023-03-24T12:14:38;96069.31;;;19.38;61.60
21185;BME280;18176;49.502;11.754;2023-03-24T12:23:45;96032.00;;;18.92;62.78
21185;BME280;18176;49.502;11.754;2023-03-24T12:28:00;96032.16;;;18.96;63.37
21185;BME280;18176;49.502;11.754;2023-03-24T12:32:17;96037.91;;;19.25;61.48
21185;BME280;18176;49.502;11.754;2023-03-24T12:36:39;96046.28;;;19.45;61.77
21185;BME280;18176;49.502;11.754;2023-03-24T12:41:12;96024.53;;;19.86;60.12
21185;BME280;18176;49.502;11.754;2023-03-24T12:45:38;96023.69;;;20.16;57.49
21185;BME280;18176;49.502;11.754;2023-03-24T12:50:03;96013.44;;;19.48;58.56
21185;BME280;18176;49.502;11.754;2023-03-24T12:54:26;96029.84;;;18.80;60.61
21185;BME280;18176;49.502;11.754;2023-03-24T12:58:41;96006.59;;;19.20;60.38
21185;BME280;18176;49.502;11.754;2023-03-24T13:02:51;96008.75;;;18.87;60.63
21185;BME280;18176;49.502;11.754;2023-03-24T13:07:00;95986.03;;;18.93;60.69
21185;BME280;18176;49.502;11.754;2023-03-24T13:11:09;95993.19;;;18.76;60.78
21185;BME280;18176;49.502;11.754;2023-03-24T13:15:38;95983.75;;;18.78;61.00
21185;BME280;18176;49.502;11.754;2023-03-24T13:19:41;95973.31;;;19.30;60.26
21185;BME280;18176;49.502;11.754;2023-03-24T13:23:51;95959.19;;;20.51;54.93
21185;BME280;18176;49.502;11.754;2023-03-24T13:27:59;95958.44;;;21.56;51.85
21185;BME280;18176;49.502;11.754;2023-03-24T13:32:12;95941.72;;;21.25;51.69
21185;BME280;18176;49.502;11.754;2023-03-24T13:36:37;95926.88;;;21.95;49.11
21185;BME280;18176;49.502;11.754;2023-03-24T13:40:46;95926.59;;;22.17;49.20
21185;BME280;18176;49.502;11.754;2023-03-24T13:44:48;95935.63;;;21.92;49.37
21185;BME280;18176;49.502;11.754;2023-03-24T13:48:59;95940.81;;;21.04;50.23
21185;BME280;18176;49.502;11.754;2023-03-24T13:53:05;95933.69;;;20.65;52.27
21185;BME280;18176;49.502;11.754;2023-03-24T13:57:17;95918.28;;;19.97;53.55
21185;BME280;18176;49.502;11.754;2023-03-24T14:01:35;95926.84;;;20.16;52.90
21185;BME280;18176;49.502;11.754;2023-03-24T14:05:57;95948.31;;;19.82;53.48
21185;BME280;18176;49.502;11.754;2023-03-24T14:10:38;95978.97;;;19.50;56.76
21185;BME280;18176;49.502;11.754;2023-03-24T14:15:14;96001.56;;;17.71;62.56
21185;BME280;18176;49.502;11.754;2023-03-24T14:19:22;96006.44;;;16.72;65.75
21185;BME280;18176;49.502;11.754;2023-03-24T14:23:36;96013.25;;;16.22;70.14
21185;BME280;18176;49.502;11.754;2023-03-24T14:27:39;96014.09;;;15.75;72.88
21185;BME280;18176;49.502;11.754;2023-03-24T14:31:40;96014.72;;;15.67;75.18
21185;BME280;18176;49.502;11.754;2023-03-24T14:35:45;96016.66;;;15.33;77.76
21185;BME280;18176;49.502;11.754;2023-03-24T14:39:52;96001.88;;;15.17;80.74
21185;BME280;18176;49.502;11.754;2023-03-24T14:43:58;96011.78;;;15.40;80.90
21185;BME280;18176;49.502;11.754;2023-03-24T14:48:01;96013.41;;;15.36;80.67
21185;BME280;18176;49.502;11.754;2023-03-24T14:52:12;96003.47;;;15.70;79.48
21185;BME280;18176;49.502;11.754;2023-03-24T14:56:21;96010.88;;;16.21;76.92
21185;BME280;18176;49.502;11.754;2023-03-24T15:00:30;96005.66;;;16.10;77.74
21185;BME280;18176;49.502;11.754;2023-03-24T15:04:33;96006.47;;;16.11;77.42
21185;BME280;18176;49.502;11.754;2023-03-24T15:08:37;96005.41;;;16.49;77.51
21185;BME280;18176;49.502;11.754;2023-03-24T15:12:45;96019.03;;;16.53;76.87
21185;BME280;18176;49.502;11.754;2023-03-24T15:16:53;96039.59;;;16.10;78.55
21185;BME280;18176;49.502;11.754;2023-03-24T15:20:55;96046.38;;;16.02;79.62
21185;BME280;18176;49.502;11.754;2023-03-24T15:24:57;96048.44;;;15.63;81.63
21185;BME280;18176;49.502;11.754;2023-03-24T15:29:04;96038.56;;;15.30;82.05
21185;BME280;18176;49.502;11.754;2023-03-24T15:33:08;96041.09;;;15.74;81.29
21185;BME280;18176;49.502;11.754;2023-03-24T15:37:21;96047.16;;;15.56;78.94
21185;BME280;18176;49.502;11.754;2023-03-24T15:41:22;96038.31;;;15.84;77.77
21185;BME280;18176;49.502;11.754;2023-03-24T15:45:29;96047.03;;;15.66;75.91
21185;BME280;18176;49.502;11.754;2023-03-24T15:49:32;96056.28;;;15.78;76.38
21185;BME280;18176;49.502;11.754;2023-03-24T15:53:40;96045.75;;;15.87;75.00
21185;BME280;18176;49.502;11.754;2023-03-24T15:57:47;96054.41;;;15.50;76.05
21185;BME280;18176;49.502;11.754;2023-03-24T16:01:51;96044.38;;;15.37;73.66
21185;BME280;18176;49.502;11.754;2023-03-24T16:05:55;96047.00;;;14.74;73.93
21185;BME280;18176;49.502;11.754;2023-03-24T16:10:01;96060.78;;;14.87;71.92
21185;BME280;18176;49.502;11.754;2023-03-24T16:14:25;96053.66;;;14.77;72.53
21185;BME280;18176;49.502;11.754;2023-03-24T16:18:36;96047.13;;;14.59;72.39
21185;BME280;18176;49.502;11.754;2023-03-24T16:22:50;96046.66;;;14.47;73.08
21185;BME280;18176;49.502;11.754;2023-03-24T16:26:53;96053.50;;;14.58;72.26
21185;BME280;18176;49.502;11.754;2023-03-24T16:30:59;96057.66;;;14.74;70.65
21185;BME280;18176;49.502;11.754;2023-03-24T16:35:00;96049.41;;;14.27;70.83
21185;BME280;18176;49.502;11.754;2023-03-24T16:39:13;96060.84;;;14.33;70.69
21185;BME280;18176;49.502;11.754;2023-03-24T16:43:15;96042.16;;;13.74;69.49
21185;BME280;18176;49.502;11.754;2023-03-24T16:47:16;96045.09;;;13.62;70.57
21185;BME280;18176;49.502;11.754;2023-03-24T16:51:17;96034.16;;;13.79;69.64
21185;BME280;18176;49.502;11.754;2023-03-24T16:55:21;96040.00;;;13.76;70.32
21185;BME280;18176;49.502;11.754;2023-03-24T16:59:22;96041.66;;;13.57;70.69
21185;BME280;18176;49.502;11.754;2023-03-24T17:03:23;96033.13;;;13.65;70.70
21185;BME280;18176;49.502;11.754;2023-03-24T17:07:26;96035.72;;;13.80;69.74
21185;BME280;18176;49.502;11.754;2023-03-24T17:11:33;96042.16;;;13.69;69.31
21185;BME280;18176;49.502;11.754;2023-03-24T17:15:35;96045.63;;;13.59;68.58
21185;BME280;18176;49.502;11.754;2023-03-24T17:19:35;96050.69;;;13.66;69.44
21185;BME280;18176;49.502;11.754;2023-03-24T17:23:39;96033.06;;;13.85;68.65
21185;BME280;18176;49.502;11.754;2023-03-24T17:27:43;96043.75;;;13.70;68.29
21185;BME280;18176;49.502;11.754;2023-03-24T17:31:44;96045.03;;;13.82;67.51
21185;BME280;18176;49.502;11.754;2023-03-24T17:35:45;96046.88;;;13.87;67.79
21185;BME280;18176;49.502;11.754;2023-03-24T17:39:45;96044.53;;;13.80;68.35
21185;BME280;18176;49.502;11.754;2023-03-24T17:43:49;96066.09;;;13.79;67.31
21185;BME280;18176;49.502;11.754;2023-03-24T17:47:51;96035.66;;;14.00;67.39
21185;BME280;18176;49.502;11.754;2023-03-24T17:51:53;96057.97;;;14.14;68.00
21185;BME280;18176;49.502;11.754;2023-03-24T17:55:57;96054.34;;;13.85;67.28
21185;BME280;18176;49.502;11.754;2023-03-24T18:00:07;96066.88;;;13.84;67.50
21185;BME280;18176;49.502;11.754;2023-03-24T18:04:11;96068.75;;;13.79;67.37
21185;BME280;18176;49.502;11.754;2023-03-24T18:08:15;96073.53;;;13.77;68.24
21185;BME280;18176;49.502;11.754;2023-03-24T18:12:17;96082.06;;;13.79;68.59
21185;BME280;18176;49.502;11.754;2023-03-24T18:16:23;96066.91;;;13.69;68.78
21185;BME280;18176;49.502;11.754;2023-03-24T18:20:28;96089.50;;;13.77;67.05
21185;BME280;18176;49.502;11.754;2023-03-24T18:24:30;96074.63;;;13.76;66.63
21185;BME280;18176;49.502;11.754;2023-03-24T18:28:34;96085.25;;;13.76;67.71
21185;BME280;18176;49.502;11.754;2023-03-24T18:32:39;96085.28;;;13.71;66.91
21185;BME280;18176;49.502;11.754;2023-03-24T18:36:42;96096.44;;;13.68;66.85
21185;BME280;18176;49.502;11.754;2023-03-24T18:40:55;96090.63;;;13.51;66.65
21185;BME280;18176;49.502;11.754;2023-03-24T18:44:56;96092.50;;;13.55;66.18
21185;BME280;18176;49.502;11.754;2023-03-24T18:49:03;96094.38;;;13.40;67.13
21185;BME280;18176;49.502;11.754;2023-03-24T18:53:05;96102.91;;;13.21;67.06
21185;BME280;18176;49.502;11.754;2023-03-24T18:57:07;96111.94;;;13.20;67.81
21185;BME280;18176;49.502;11.754;2023-03-24T19:01:14;96095.94;;;13.00;68.18
21185;BME280;18176;49.502;11.754;2023-03-24T19:05:23;96099.16;;;13.12;68.69
21185;BME280;18176;49.502;11.754;2023-03-24T19:09:27;96084.25;;;13.06;68.20
21185;BME280;18176;49.502;11.754;2023-03-24T19:13:30;96101.78;;;12.97;68.82
21185;BME280;18176;49.502;11.754;2023-03-24T19:17:32;96099.13;;;12.92;68.93
21185;BME280;18176;49.502;11.754;2023-03-24T19:21:38;96107.09;;;12.77;68.97
21185;BME280;18176;49.502;11.754;2023-03-24T19:25:41;96129.38;;;12.61;69.57
21185;BME280;18176;49.502;11.754;2023-03-24T19:29:44;96126.69;;;12.56;70.01
21185;BME280;18176;49.502;11.754;2023-03-24T19:33:48;96140.94;;;12.30;70.92
21185;BME280;18176;49.502;11.754;2023-03-24T19:37:54;96131.88;;;12.26;71.10
21185;BME280;18176;49.502;11.754;2023-03-24T19:41:57;96138.81;;;12.27;70.88
21185;BME280;18176;49.502;11.754;2023-03-24T19:46:02;96128.63;;;12.14;72.20
21185;BME280;18176;49.502;11.754;2023-03-24T19:50:06;96140.63;;;12.21;71.81
21185;BME280;18176;49.502;11.754;2023-03-24T19:54:12;96124.59;;;11.96;72.78
21185;BME280;18176;49.502;11.754;2023-03-24T19:58:16;96133.44;;;12.17;72.42
21185;BME280;18176;49.502;11.754;2023-03-24T20:02:18;96137.16;;;12.16;71.91
21185;BME280;18176;49.502;11.754;2023-03-24T20:06:22;96136.16;;;12.27;71.96
21185;BME280;18176;49.502;11.754;2023-03-24T20:10:28;96144.41;;;12.30;72.68
21185;BME280;18176;49.502;11.754;2023-03-24T20:14:32;96155.75;;;12.21;72.81
21185;BME280;18176;49.502;11.754;2023-03-24T20:18:35;96151.56;;;12.25;72.88
21185;BME280;18176;49.502;11.754;2023-03-24T20:22:39;96146.25;;;12.25;72.85
21185;BME280;18176;49.502;11.754;2023-03-24T20:26:45;96130.84;;;12.27;72.04
21185;BME280;18176;49.502;11.754;2023-03-24T20:30:45;96168.59;;;12.39;72.66
21185;BME280;18176;49.502;11.754;2023-03-24T20:34:48;96178.06;;;12.15;74.40
21185;BME280;18176;49.502;11.754;2023-03-24T20:38:49;96186.63;;;12.27;74.17
21185;BME280;18176;49.502;11.754;2023-03-24T20:42:52;96180.50;;;12.26;74.37
21185;BME280;18176;49.502;11.754;2023-03-24T20:46:53;96171.69;;;12.21;74.46
21185;BME280;18176;49.502;11.754;2023-03-24T20:50:55;96180.25;;;12.33;74.70
21185;BME280;18176;49.502;11.754;2023-03-24T20:54:56;96187.69;;;12.31;75.52
21185;BME280;18176;49.502;11.754;2023-03-24T20:59:00;96188.25;;;12.38;75.33
21185;BME280;18176;49.502;11.754;2023-03-24T21:03:03;96180.31;;;12.43;75.63
21185;BME280;18176;49.502;11.754;2023-03-24T21:07:04;96185.63;;;12.43;75.93
21185;BME280;18176;49.502;11.754;2023-03-24T21:11:05;96186.09;;;12.25;76.88
21185;BME280;18176;49.502;11.754;2023-03-24T21:15:09;96162.72;;;12.32;76.10
21185;BME280;18176;49.502;11.754;2023-03-24T21:19:10;96185.56;;;12.33;76.36
21185;BME280;18176;49.502;11.754;2023-03-24T21:23:12;96178.31;;;12.13;77.09
21185;BME280;18176;49.502;11.754;2023-03-24T21:27:15;96178.88;;;12.25;76.95
21185;BME280;18176;49.502;11.754;2023-03-24T21:31:24;96174.94;;;12.33;76.59
21185;BME280;18176;49.502;11.754;2023-03-24T21:35:26;96185.06;;;12.36;76.59
21185;BME280;18176;49.502;11.754;2023-03-24T21:39:28;96168.59;;;12.39;76.25
21185;BME280;18176;49.502;11.754;2023-03-24T21:43:29;96174.97;;;12.38;76.44